Time;durP1;ratioP1;P1;durP2;ratioP2;P2;SDS_P1;SDS_P2;PMS_P1;PMS_P2;Temp;Humidity;BMP_temperature;BMP_pressure;BME280_temperature;BME280_humidity;BME280_pressure;Samples;Min_cycle;Max_cycle;Signal;HPM_P1;HPM_P2
2021/12/05 00:19:34;;;;;;;1.60;1.10;;;5.80;99.20;;;;;;5048861;28;20489;-45
2021/12/05 00:22:10;;;;;;;11.30;2.23;;;5.70;99.10;;;;;;5040606;28;20496;-45
2021/12/05 00:24:43;;;;;;;5.10;2.27;;;5.80;99.10;;;;;;5048980;28;20508;-45
2021/12/05 00:27:16;;;;;;;2.37;1.77;;;5.70;99.00;;;;;;5054663;28;20572;-46
2021/12/05 00:29:50;;;;;;;2.93;1.23;;;5.80;98.90;;;;;;5052352;28;20953;-44
2021/12/05 00:32:23;;;;;;;2.90;1.77;;;5.80;98.80;;;;;;5051042;28;20660;-45
2021/12/05 00:35:26;;;;;;;3.93;1.50;;;5.70;98.90;;;;;;5058428;28;20490;-45
2021/12/05 00:41:05;;;;;;;4.93;2.10;;;5.80;99.20;;;;;;5037090;28;20491;-45
2021/12/05 00:46:43;;;;;;;7.30;2.83;;;5.80;98.80;;;;;;5013662;28;20990;-46
2021/12/05 00:52:18;;;;;;;7.10;2.30;;;5.80;98.90;;;;;;5065236;28;20499;-45
2021/12/05 01:03:22;;;;;;;2.70;1.50;;;5.80;98.90;;;;;;4994239;28;20476;-44
2021/12/05 01:11:31;;;;;;;3.43;1.70;;;5.90;98.90;;;;;;5037527;28;20540;-45
2021/12/05 01:14:10;;;;;;;10.60;1.23;;;5.90;98.80;;;;;;5052157;28;20890;-45
2021/12/05 01:16:38;;;;;;;2.13;1.00;;;5.80;98.70;;;;;;5051649;28;20473;-45
2021/12/05 01:19:07;;;;;;;4.73;2.33;;;5.80;98.80;;;;;;5059231;28;20479;-45
2021/12/05 01:21:35;;;;;;;5.13;1.93;;;5.80;98.60;;;;;;5064843;28;20940;-45
2021/12/05 01:24:15;;;;;;;3.13;1.70;;;5.80;98.90;;;;;;5052947;28;20529;-45
2021/12/05 01:26:48;;;;;;;13.90;2.50;;;5.80;98.80;;;;;;5062219;28;20477;-46
2021/12/05 01:29:30;;;;;;;7.13;1.73;;;5.70;98.90;;;;;;5053064;28;20998;-46
2021/12/05 01:32:07;;;;;;;10.40;1.60;;;5.70;98.90;;;;;;5051643;28;20700;-45
2021/12/05 01:34:44;;;;;;;3.47;1.43;;;5.60;98.70;;;;;;5055043;27;20488;-45
2021/12/05 01:37:22;;;;;;;2.40;1.13;;;5.70;99.00;;;;;;5051008;28;20512;-46
2021/12/05 01:40:04;;;;;;;4.00;1.90;;;5.60;98.90;;;;;;5068334;28;21311;-45
2021/12/05 01:45:47;;;;;;;1.60;0.80;;;5.50;99.00;;;;;;5041442;28;20477;-46
2021/12/05 01:59:21;;;;;;;6.20;2.20;;;5.50;99.40;;;;;;5027296;28;20627;-45
2021/12/05 02:16:02;;;;;;;5.60;3.20;;;5.50;99.40;;;;;;5048526;28;20578;-46
2021/12/05 02:32:36;;;;;;;7.43;2.60;;;5.40;99.80;;;;;;5071932;28;20525;-45
2021/12/05 02:35:19;;;;;;;4.47;1.60;;;5.40;99.90;;;;;;5053952;28;20870;-45
2021/12/05 02:43:36;;;;;;;5.50;3.60;;;5.40;99.90;;;;;;4979272;28;20497;-46
2021/12/05 02:46:05;;;;;;;2.73;1.63;;;5.40;99.90;;;;;;5032440;28;20485;-45
2021/12/05 02:48:35;;;;;;;9.83;2.23;;;5.50;99.90;;;;;;5058157;28;20485;-46
2021/12/05 02:51:06;;;;;;;5.13;2.90;;;5.50;99.90;;;;;;5051510;28;20492;-45
2021/12/05 02:53:40;;;;;;;4.83;2.50;;;5.40;99.90;;;;;;5058468;28;20489;-46
2021/12/05 02:56:09;;;;;;;9.03;2.97;;;5.50;99.90;;;;;;5078063;28;20479;-45
2021/12/05 02:58:41;;;;;;;5.27;2.70;;;5.50;99.90;;;;;;5082465;28;20486;-45
2021/12/05 03:01:17;;;;;;;6.30;2.60;;;5.50;99.90;;;;;;5079034;28;20573;-45
2021/12/05 03:03:44;;;;;;;5.57;2.93;;;5.50;99.90;;;;;;5068034;28;20905;-46
2021/12/05 03:06:16;;;;;;;2.30;1.63;;;5.50;99.90;;;;;;5066190;28;20479;-46
2021/12/05 03:08:45;;;;;;;7.53;3.17;;;5.50;99.90;;;;;;5058204;28;20979;-45
2021/12/05 03:11:12;;;;;;;3.40;1.80;;;5.40;99.90;;;;;;5064102;28;20517;-46
2021/12/05 03:13:40;;;;;;;1.73;1.20;;;5.50;99.90;;;;;;5058262;28;20801;-45
2021/12/05 03:16:09;;;;;;;9.57;2.40;;;5.40;99.90;;;;;;5058071;28;20493;-45
2021/12/05 03:18:36;;;;;;;5.73;2.20;;;5.40;99.90;;;;;;5065291;28;20491;-46
2021/12/05 03:21:07;;;;;;;7.20;1.63;;;5.30;99.90;;;;;;5059424;28;20484;-47
2021/12/05 03:23:34;;;;;;;6.50;2.20;;;5.20;99.90;;;;;;5056520;28;20991;-45
2021/12/05 03:26:03;;;;;;;1.83;1.47;;;5.10;99.90;;;;;;5055580;28;20484;-45
2021/12/05 03:28:30;;;;;;;1.77;1.40;;;5.10;99.90;;;;;;5054246;28;20481;-45
2021/12/05 03:30:57;;;;;;;2.27;1.60;;;5.10;99.90;;;;;;5059918;28;20953;-46
2021/12/05 03:33:24;;;;;;;7.73;2.70;;;5.10;99.90;;;;;;5061917;28;20472;-56
2021/12/05 03:35:51;;;;;;;3.80;1.83;;;5.00;99.90;;;;;;5063050;28;20485;-45
2021/12/05 03:38:17;;;;;;;4.80;1.77;;;5.00;99.90;;;;;;5058242;28;20546;-46
2021/12/05 03:40:44;;;;;;;3.80;2.30;;;5.00;99.90;;;;;;5063403;28;20867;-46
2021/12/05 03:43:15;;;;;;;1.70;1.53;;;4.90;99.90;;;;;;5064149;28;20536;-51
2021/12/05 03:45:45;;;;;;;4.70;2.50;;;4.90;99.90;;;;;;5048268;28;20507;-46
2021/12/05 03:48:14;;;;;;;7.50;2.40;;;4.80;99.90;;;;;;5072120;28;20839;-46
2021/12/05 03:50:41;;;;;;;2.53;2.33;;;4.80;99.90;;;;;;5060328;28;20494;-46
2021/12/05 03:53:10;;;;;;;3.97;1.60;;;4.80;99.90;;;;;;5053962;28;20604;-45
2021/12/05 03:55:39;;;;;;;3.00;2.20;;;4.90;99.90;;;;;;5070489;28;21157;-46
2021/12/05 03:58:07;;;;;;;3.23;2.53;;;4.90;99.90;;;;;;5059205;28;20485;-45
2021/12/05 04:00:39;;;;;;;8.23;2.27;;;4.90;99.90;;;;;;5060033;28;20533;-45
2021/12/05 04:03:10;;;;;;;3.70;2.37;;;4.90;99.90;;;;;;5050360;28;20491;-47
2021/12/05 04:05:38;;;;;;;3.77;2.00;;;5.00;99.90;;;;;;5062569;28;21005;-45
2021/12/05 04:08:07;;;;;;;6.90;2.80;;;5.00;99.90;;;;;;5062921;28;20476;-46
2021/12/05 04:10:35;;;;;;;7.90;3.90;;;5.00;99.90;;;;;;5056983;28;20467;-45
2021/12/05 04:13:02;;;;;;;5.57;3.30;;;5.10;99.90;;;;;;5057865;28;20476;-45
2021/12/05 04:15:28;;;;;;;3.87;2.93;;;5.10;99.90;;;;;;5056744;28;20487;-45
2021/12/05 04:17:57;;;;;;;5.80;2.57;;;5.00;99.90;;;;;;5054820;28;20479;-45
2021/12/05 04:20:24;;;;;;;25.20;4.90;;;5.00;99.90;;;;;;5062718;28;20505;-46
2021/12/05 04:22:51;;;;;;;7.57;4.17;;;4.90;99.90;;;;;;5063094;28;20585;-46
2021/12/05 04:25:19;;;;;;;5.03;3.10;;;4.80;99.90;;;;;;5056339;28;20536;-45
2021/12/05 04:27:47;;;;;;;4.13;2.50;;;4.80;99.90;;;;;;5062224;28;20519;-45
2021/12/05 04:30:16;;;;;;;10.53;3.50;;;4.90;99.90;;;;;;5056698;28;20490;-46
2021/12/05 04:32:43;;;;;;;3.87;2.97;;;4.90;99.90;;;;;;5075697;28;20541;-45
2021/12/05 04:35:12;;;;;;;4.60;2.40;;;4.90;99.90;;;;;;5064456;28;20484;-46
2021/12/05 04:37:39;;;;;;;7.30;2.80;;;5.00;99.90;;;;;;5045256;28;20473;-46
2021/12/05 04:40:08;;;;;;;5.93;2.70;;;5.00;99.90;;;;;;5040896;28;20773;-45
2021/12/05 04:42:35;;;;;;;7.43;2.30;;;4.90;99.90;;;;;;5047778;28;20479;-46
2021/12/05 04:45:02;;;;;;;5.03;2.13;;;4.90;99.90;;;;;;5064243;28;20534;-46
2021/12/05 04:47:29;;;;;;;6.37;3.30;;;4.80;99.90;;;;;;5062597;28;20490;-46
2021/12/05 04:49:56;;;;;;;9.83;3.20;;;4.80;99.90;;;;;;5053866;28;20495;-46
2021/12/05 04:52:24;;;;;;;12.77;2.70;;;4.80;99.90;;;;;;5058921;28;20495;-46
2021/12/05 04:54:51;;;;;;;10.40;2.80;;;4.80;99.90;;;;;;5060432;28;20485;-47
2021/12/05 04:57:18;;;;;;;17.87;3.37;;;4.70;99.90;;;;;;5061496;28;20473;-46
2021/12/05 04:59:49;;;;;;;5.73;1.80;;;4.60;99.90;;;;;;5058414;28;20537;-46
2021/12/05 05:02:17;;;;;;;9.03;3.93;;;4.70;99.90;;;;;;5043934;28;20475;-46
2021/12/05 05:04:46;;;;;;;2.10;1.87;;;4.60;99.90;;;;;;5048025;28;20489;-46
2021/12/05 05:07:21;;;;;;;8.40;3.60;;;4.70;99.90;;;;;;5053390;28;20483;-46
2021/12/05 05:09:52;;;;;;;2.87;2.20;;;4.60;99.90;;;;;;5063075;28;20567;-50
2021/12/05 05:12:19;;;;;;;6.97;3.10;;;4.70;99.90;;;;;;5052117;28;21148;-46
2021/12/05 05:14:47;;;;;;;11.53;3.93;;;4.60;99.90;;;;;;5083524;28;20491;-46
2021/12/05 05:17:14;;;;;;;6.33;3.80;;;4.50;99.90;;;;;;5061956;28;21016;-46
2021/12/05 05:19:45;;;;;;;8.03;3.53;;;4.40;99.90;;;;;;5062664;28;20620;-45
2021/12/05 05:22:22;;;;;;;7.57;2.60;;;4.40;99.90;;;;;;5062954;28;21032;-46
2021/12/05 05:28:04;;;;;;;4.20;2.70;;;4.50;99.90;;;;;;5053104;28;20979;-46
2021/12/05 05:44:34;;;;;;;3.70;1.60;;;4.70;99.90;;;;;;5058889;28;20613;-46
2021/12/05 05:47:06;;;;;;;6.73;2.57;;;4.60;99.90;;;;;;5064648;28;20505;-46
2021/12/05 05:49:47;;;;;;;3.20;1.67;;;4.60;99.90;;;;;;5063782;28;20494;-45
2021/12/05 05:52:14;;;;;;;5.70;2.73;;;4.70;99.90;;;;;;5049624;28;20470;-46
2021/12/05 05:54:44;;;;;;;3.83;2.33;;;4.70;99.90;;;;;;5055982;28;20471;-46
2021/12/05 05:57:19;;;;;;;2.23;0.83;;;4.70;99.90;;;;;;5073164;28;20487;-45
2021/12/05 05:59:52;;;;;;;4.50;1.97;;;4.80;99.90;;;;;;5060841;28;20844;-46
2021/12/05 06:05:04;;;;;;;3.57;2.70;;;4.90;99.90;;;;;;5056119;28;20560;-46
2021/12/05 06:07:33;;;;;;;4.93;2.27;;;4.90;99.90;;;;;;5058773;28;20491;-46
2021/12/05 06:09:59;;;;;;;3.63;1.80;;;4.90;99.90;;;;;;5059362;28;20515;-46
2021/12/05 06:12:27;;;;;;;10.37;2.47;;;4.80;99.90;;;;;;5065073;28;20482;-46
2021/12/05 06:14:54;;;;;;;10.33;2.90;;;4.80;99.90;;;;;;5073400;28;20480;-46
2021/12/05 06:17:21;;;;;;;4.40;2.40;;;4.70;99.90;;;;;;5060703;28;20480;-46
2021/12/05 06:19:47;;;;;;;14.73;2.23;;;4.70;99.90;;;;;;5061815;28;20483;-46
2021/12/05 06:22:14;;;;;;;7.20;1.70;;;4.80;99.90;;;;;;5060703;28;20836;-46
2021/12/05 06:24:41;;;;;;;9.67;2.03;;;4.80;99.90;;;;;;5060130;28;21040;-46
2021/12/05 06:27:08;;;;;;;8.23;3.30;;;4.80;99.90;;;;;;5065560;28;20897;-46
2021/12/05 06:29:41;;;;;;;9.70;2.80;;;4.80;99.90;;;;;;5059869;28;20497;-46
2021/12/05 06:37:48;;;;;;;3.23;1.70;;;4.70;99.90;;;;;;5069489;28;20502;-46
2021/12/05 06:40:25;;;;;;;2.97;1.30;;;4.70;99.90;;;;;;5061799;28;20534;-46
2021/12/05 06:42:59;;;;;;;4.97;1.33;;;4.70;99.90;;;;;;5061327;28;20469;-45
2021/12/05 06:48:11;;;;;;;3.20;2.07;;;4.80;99.90;;;;;;5080736;28;20531;-46
2021/12/05 06:50:38;;;;;;;3.17;1.63;;;4.80;99.90;;;;;;5086253;28;20561;-48
2021/12/05 06:53:07;;;;;;;1.53;1.10;;;4.90;99.90;;;;;;5062693;28;20494;-46
2021/12/05 06:55:34;;;;;;;4.27;1.90;;;4.80;99.90;;;;;;5074713;28;20849;-46
2021/12/05 06:58:01;;;;;;;3.90;1.20;;;4.90;99.90;;;;;;5058805;28;20509;-46
2021/12/05 07:00:31;;;;;;;1.70;1.20;;;4.90;99.90;;;;;;5077008;28;20472;-46
2021/12/05 07:02:58;;;;;;;3.30;2.03;;;4.90;99.90;;;;;;5068561;28;20574;-46
2021/12/05 07:08:13;;;;;;;14.23;3.90;;;4.90;99.90;;;;;;5061303;28;20475;-46
2021/12/05 07:10:47;;;;;;;4.30;1.63;;;5.00;99.90;;;;;;5060468;28;20473;-46
2021/12/05 07:16:09;;;;;;;6.97;1.93;;;5.00;99.90;;;;;;5056934;28;20583;-46
2021/12/05 07:18:43;;;;;;;2.23;2.03;;;4.90;99.90;;;;;;5038756;28;20808;-48
2021/12/05 07:21:27;;;;;;;8.63;1.93;;;4.90;99.90;;;;;;5042501;28;20488;-46
2021/12/05 07:24:03;;;;;;;3.30;1.20;;;4.80;99.90;;;;;;5072273;28;20867;-45
2021/12/05 07:26:44;;;;;;;2.07;0.90;;;4.70;99.90;;;;;;5068880;28;20477;-46
2021/12/05 07:40:27;;;;;;;1.50;0.90;;;4.50;99.90;;;;;;5053418;28;20947;-46
2021/12/05 07:42:54;;;;;;;4.07;0.80;;;4.50;99.90;;;;;;5084835;28;20506;-46
2021/12/05 07:45:27;;;;;;;4.50;1.03;;;4.50;99.90;;;;;;5057798;28;20579;-47
2021/12/05 07:47:57;;;;;;;1.97;0.80;;;4.50;99.90;;;;;;5057178;28;20823;-46
2021/12/05 07:50:36;;;;;;;1.60;1.13;;;4.40;99.90;;;;;;5057564;28;20576;-46
2021/12/05 07:53:09;;;;;;;4.63;1.07;;;4.50;99.90;;;;;;5077694;28;20575;-46
2021/12/05 07:55:41;;;;;;;2.33;1.40;;;4.40;99.90;;;;;;5077953;28;21040;-46
2021/12/05 07:58:21;;;;;;;1.50;0.90;;;4.40;99.90;;;;;;5052023;28;20484;-46
2021/12/05 08:00:57;;;;;;;3.07;1.20;;;4.40;99.90;;;;;;5047468;28;20480;-46
2021/12/05 08:14:34;;;;;;;3.47;1.70;;;4.50;99.90;;;;;;5010355;28;20509;-48
2021/12/05 08:17:03;;;;;;;2.20;1.50;;;4.60;99.90;;;;;;5060441;28;20483;-46
2021/12/05 08:19:31;;;;;;;2.63;1.77;;;4.60;99.90;;;;;;5051528;28;20893;-47
2021/12/05 08:21:57;;;;;;;3.83;1.87;;;4.60;99.90;;;;;;5058334;28;20682;-49
2021/12/05 08:24:25;;;;;;;6.73;1.60;;;4.70;99.90;;;;;;5057057;28;20480;-47
2021/12/05 08:26:53;;;;;;;3.00;2.70;;;4.60;99.90;;;;;;5055996;28;20580;-46
2021/12/05 08:29:28;;;;;;;4.07;2.23;;;4.60;99.90;;;;;;5050643;28;20489;-46
2021/12/05 08:32:12;;;;;;;3.67;2.30;;;4.60;99.90;;;;;;5039313;28;21282;-46
2021/12/05 08:35:02;;;;;;;4.53;2.37;;;4.50;99.90;;;;;;5064572;28;20491;-46
2021/12/05 08:38:33;;;;;;;2.20;1.83;;;4.40;99.90;;;;;;5060785;28;20486;-46
2021/12/05 08:41:25;;;;;;;3.10;1.53;;;4.60;99.90;;;;;;5037388;28;20478;-46
2021/12/05 08:44:14;;;;;;;10.00;3.23;;;4.60;99.90;;;;;;5037936;28;20537;-46
2021/12/05 09:25:42;;;;;;;3.30;1.60;;;5.10;99.90;;;;;;5065444;28;20912;-47
2021/12/05 09:31:05;;;;;;;3.50;1.17;;;5.10;99.90;;;;;;5014552;28;20540;-48
2021/12/05 09:39:40;;;;;;;1.83;1.07;;;5.20;99.90;;;;;;5075251;28;20541;-48
2021/12/05 10:07:01;;;;;;;2.40;2.20;;;5.30;99.90;;;;;;5037777;28;21028;-47
2021/12/05 10:09:53;;;;;;;2.27;1.40;;;5.30;99.90;;;;;;5028630;28;21644;-47
2021/12/05 10:12:45;;;;;;;3.43;1.00;;;5.30;99.90;;;;;;5037844;28;20497;-47
2021/12/05 10:15:32;;;;;;;1.50;0.80;;;5.30;99.90;;;;;;5033446;28;20993;-47
2021/12/05 10:18:45;;;;;;;2.00;1.00;;;5.40;99.90;;;;;;5036227;28;21105;-47
2021/12/05 10:27:13;;;;;;;7.90;1.70;;;5.40;99.90;;;;;;5083759;28;20500;-48
2021/12/05 10:35:40;;;;;;;2.13;1.43;;;5.70;99.90;;;;;;5024276;28;20836;-47
2021/12/05 10:38:16;;;;;;;1.90;0.97;;;5.70;99.90;;;;;;5028026;28;20476;-47
2021/12/05 10:40:55;;;;;;;4.37;1.60;;;5.80;99.80;;;;;;5035265;28;20505;-47
2021/12/05 10:43:24;;;;;;;1.80;1.10;;;5.80;99.90;;;;;;5047011;28;20483;-47
2021/12/05 10:45:54;;;;;;;5.17;1.60;;;5.80;99.40;;;;;;5033718;28;20532;-47
2021/12/05 10:48:26;;;;;;;1.50;1.30;;;5.90;99.60;;;;;;5056083;28;21154;-48
2021/12/05 10:50:56;;;;;;;2.50;1.80;;;5.90;99.50;;;;;;5031469;28;20493;-48
2021/12/05 10:53:28;;;;;;;3.23;1.43;;;5.90;99.50;;;;;;5052434;28;21025;-48
2021/12/05 10:56:01;;;;;;;3.17;1.80;;;6.00;99.90;;;;;;5035409;28;20523;-47
2021/12/05 10:58:42;;;;;;;2.77;1.70;;;6.10;99.70;;;;;;5041091;28;20484;-46
2021/12/05 11:01:17;;;;;;;5.90;1.80;;;6.00;99.50;;;;;;5024350;28;20500;-47
2021/12/05 11:03:46;;;;;;;2.83;1.70;;;6.00;99.70;;;;;;5038054;28;20471;-46
2021/12/05 11:06:41;;;;;;;6.37;1.40;;;6.00;99.10;;;;;;5040177;28;20540;-47
2021/12/05 11:09:12;;;;;;;1.60;0.63;;;6.10;99.20;;;;;;5029234;28;21005;-47
2021/12/05 11:11:43;;;;;;;1.30;0.70;;;6.30;99.30;;;;;;5042248;28;20485;-47
2021/12/05 11:14:12;;;;;;;3.43;1.27;;;6.40;99.20;;;;;;5043412;28;20489;-47
2021/12/05 11:16:59;;;;;;;3.47;1.13;;;6.60;99.00;;;;;;5044509;28;20879;-48
2021/12/05 11:19:31;;;;;;;1.70;1.00;;;6.70;98.90;;;;;;5033308;28;21335;-47
2021/12/05 11:22:07;;;;;;;3.73;1.50;;;6.60;98.70;;;;;;5048155;28;20483;-52
2021/12/05 11:24:36;;;;;;;1.83;1.20;;;6.60;99.20;;;;;;5056808;28;20484;-48
2021/12/05 11:27:29;;;;;;;1.67;1.20;;;6.50;98.60;;;;;;5071456;28;20476;-47
2021/12/05 11:30:10;;;;;;;1.80;1.20;;;6.50;99.00;;;;;;5064248;28;20580;-48
2021/12/05 11:32:40;;;;;;;1.90;1.07;;;6.60;98.60;;;;;;5044627;28;21015;-47
2021/12/05 11:35:19;;;;;;;2.37;1.23;;;6.70;99.00;;;;;;5079825;28;20888;-47
2021/12/05 11:37:57;;;;;;;1.60;0.80;;;6.60;97.90;;;;;;5066599;28;21013;-47
2021/12/05 11:40:27;;;;;;;5.00;1.23;;;6.60;98.40;;;;;;5061393;28;20489;-47
2021/12/05 11:42:56;;;;;;;1.73;0.80;;;6.70;98.90;;;;;;5060513;28;21033;-47
2021/12/05 11:45:23;;;;;;;2.10;1.40;;;6.70;98.40;;;;;;5053225;28;20482;-47
2021/12/05 11:47:53;;;;;;;3.73;1.13;;;6.60;98.20;;;;;;5075784;28;20482;-48
2021/12/05 11:50:31;;;;;;;4.23;1.00;;;6.40;98.20;;;;;;5064827;28;20566;-48
2021/12/05 11:52:58;;;;;;;5.07;1.27;;;6.40;98.30;;;;;;5059281;28;20492;-47
2021/12/05 11:55:27;;;;;;;2.40;1.10;;;6.40;98.90;;;;;;5062974;28;20478;-48
2021/12/05 11:57:53;;;;;;;1.90;0.90;;;6.40;98.90;;;;;;5058237;28;20517;-47
2021/12/05 12:00:23;;;;;;;2.43;1.43;;;6.50;98.80;;;;;;5067141;28;20481;-48
2021/12/05 12:02:50;;;;;;;6.10;1.13;;;6.50;98.70;;;;;;5057459;28;20495;-47
2021/12/05 12:05:23;;;;;;;1.50;0.93;;;6.50;98.50;;;;;;5059823;28;21055;-48
2021/12/05 12:07:53;;;;;;;3.80;1.40;;;6.60;98.70;;;;;;5060336;28;20471;-48
2021/12/05 12:10:23;;;;;;;2.10;0.80;;;6.70;98.80;;;;;;5081045;28;20929;-47
2021/12/05 12:12:53;;;;;;;2.33;1.50;;;6.70;98.60;;;;;;5063334;28;20925;-48
2021/12/05 12:15:22;;;;;;;3.47;1.50;;;6.70;99.30;;;;;;5067677;28;20474;-50
2021/12/05 12:17:52;;;;;;;2.90;1.37;;;6.70;98.90;;;;;;5065336;28;20493;-49
2021/12/05 12:20:24;;;;;;;1.83;1.10;;;6.80;99.00;;;;;;5059933;28;20474;-47
2021/12/05 12:22:51;;;;;;;2.00;1.30;;;6.90;98.60;;;;;;5031854;28;20550;-48
2021/12/05 12:25:21;;;;;;;4.03;1.47;;;6.80;98.60;;;;;;5057737;28;20482;-47
2021/12/05 12:27:49;;;;;;;2.37;1.17;;;6.70;98.60;;;;;;5071344;28;20528;-47
2021/12/05 12:30:24;;;;;;;2.33;1.57;;;6.70;98.80;;;;;;5080663;28;20848;-47
2021/12/05 12:32:54;;;;;;;4.47;1.43;;;6.60;98.70;;;;;;5060050;28;20901;-47
2021/12/05 12:35:27;;;;;;;1.50;0.80;;;6.50;98.60;;;;;;5060943;28;20470;-48
2021/12/05 12:37:56;;;;;;;1.60;0.77;;;6.50;98.50;;;;;;5046040;28;20538;-47
2021/12/05 12:40:35;;;;;;;2.27;1.10;;;6.30;98.80;;;;;;5048168;28;20496;-48
2021/12/05 12:43:03;;;;;;;4.90;1.27;;;6.30;98.60;;;;;;5069530;28;20483;-47
2021/12/05 12:45:37;;;;;;;2.53;1.67;;;6.20;98.20;;;;;;5055280;28;21317;-48
2021/12/05 12:48:08;;;;;;;6.63;1.60;;;6.30;98.70;;;;;;5054502;28;20510;-47
2021/12/05 12:50:41;;;;;;;5.43;1.20;;;6.20;98.90;;;;;;5061337;28;20799;-47
2021/12/05 12:53:15;;;;;;;2.10;1.23;;;6.20;99.00;;;;;;5072199;27;20973;-47
2021/12/05 12:55:50;;;;;;;3.93;1.20;;;6.30;99.30;;;;;;5079545;27;21104;-47
2021/12/05 12:58:40;;;;;;;2.27;1.03;;;6.40;99.20;;;;;;5060182;28;20491;-47
2021/12/05 13:01:17;;;;;;;1.63;0.93;;;6.50;99.30;;;;;;5051337;28;20492;-47
2021/12/05 13:04:27;;;;;;;2.33;1.13;;;6.50;99.40;;;;;;5061794;28;20892;-47
2021/12/05 13:12:47;;;;;;;3.80;1.40;;;6.60;99.20;;;;;;5063493;28;21031;-48
2021/12/05 13:15:17;;;;;;;3.30;1.27;;;6.60;99.10;;;;;;5059189;28;20489;-48
2021/12/05 13:17:48;;;;;;;2.53;1.20;;;6.70;98.90;;;;;;5051489;28;20489;-48
2021/12/05 13:20:18;;;;;;;4.47;2.00;;;6.70;98.80;;;;;;5064143;28;20526;-47
2021/12/05 13:23:05;;;;;;;2.83;1.60;;;6.70;98.90;;;;;;5061451;28;20484;-48
2021/12/05 13:25:36;;;;;;;4.53;1.80;;;6.70;98.40;;;;;;5062261;28;20519;-47
2021/12/05 13:28:28;;;;;;;2.43;1.17;;;6.80;98.40;;;;;;5054546;28;20482;-47
2021/12/05 13:30:56;;;;;;;5.60;1.20;;;6.70;98.50;;;;;;5051613;28;20530;-47
2021/12/05 13:33:25;;;;;;;5.53;1.67;;;6.70;98.10;;;;;;5046031;28;20489;-48
2021/12/05 13:35:57;;;;;;;5.43;1.30;;;6.70;98.30;;;;;;5066508;28;20948;-48
2021/12/05 13:38:33;;;;;;;3.20;1.40;;;6.60;98.30;;;;;;5047130;28;20539;-48
2021/12/05 13:41:12;;;;;;;4.17;1.30;;;6.60;98.10;;;;;;5054891;28;21331;-47
2021/12/05 13:43:40;;;;;;;3.87;1.97;;;6.50;98.40;;;;;;5044009;28;20491;-47
2021/12/05 13:46:36;;;;;;;10.40;2.17;;;6.30;98.70;;;;;;5068228;27;20695;-47
2021/12/05 13:49:23;;;;;;;2.13;1.63;;;6.30;98.60;;;;;;5036580;28;20475;-47
2021/12/05 13:51:50;;;;;;;3.33;1.43;;;6.30;98.80;;;;;;5038001;28;20561;-47
2021/12/05 13:54:24;;;;;;;3.03;2.10;;;6.10;99.30;;;;;;5044286;28;20549;-47
2021/12/05 13:57:07;;;;;;;2.17;1.53;;;6.10;99.30;;;;;;5052252;28;20483;-47
2021/12/05 13:59:36;;;;;;;3.93;2.03;;;6.00;98.80;;;;;;5031121;28;20856;-47
2021/12/05 14:02:03;;;;;;;3.10;1.80;;;5.90;98.70;;;;;;5055099;28;20477;-47
2021/12/05 14:04:34;;;;;;;2.03;1.83;;;5.70;98.40;;;;;;5031811;28;20488;-47
2021/12/05 14:07:02;;;;;;;3.23;1.33;;;5.40;99.10;;;;;;5060347;28;21055;-47
2021/12/05 14:09:37;;;;;;;2.50;0.97;;;5.30;99.30;;;;;;5048772;28;20484;-47
2021/12/05 14:12:08;;;;;;;2.97;2.00;;;5.20;99.60;;;;;;5074728;28;20482;-48
2021/12/05 14:14:38;;;;;;;4.77;1.57;;;5.10;99.90;;;;;;5044193;28;20716;-48
2021/12/05 14:17:09;;;;;;;2.53;1.13;;;5.10;99.90;;;;;;5053496;28;20508;-48
2021/12/05 14:19:38;;;;;;;2.43;1.10;;;5.00;99.60;;;;;;5046946;28;20731;-48
2021/12/05 14:22:09;;;;;;;3.70;1.47;;;5.10;99.60;;;;;;5032309;28;20478;-47
2021/12/05 14:24:40;;;;;;;8.10;1.50;;;5.20;99.90;;;;;;5042217;28;20915;-48
2021/12/05 14:27:10;;;;;;;1.83;1.17;;;5.50;99.90;;;;;;5051646;28;20481;-48
2021/12/05 14:29:40;;;;;;;1.60;1.23;;;5.80;99.90;;;;;;5052661;28;20543;-47
2021/12/05 14:32:11;;;;;;;2.07;1.10;;;5.90;99.90;;;;;;5040900;28;20480;-47
2021/12/05 14:34:39;;;;;;;2.53;1.13;;;6.10;99.90;;;;;;5052201;28;20484;-47
2021/12/05 14:37:08;;;;;;;2.20;1.23;;;6.30;99.90;;;;;;5038623;28;21136;-47
2021/12/05 14:39:40;;;;;;;3.57;1.30;;;6.60;99.90;;;;;;5052976;28;20547;-47
2021/12/05 14:42:11;;;;;;;2.00;1.50;;;6.70;99.80;;;;;;5056235;28;20945;-47
2021/12/05 14:44:38;;;;;;;2.20;1.20;;;6.90;99.80;;;;;;5064030;28;20486;-47
2021/12/05 14:47:08;;;;;;;6.13;1.20;;;7.00;99.60;;;;;;5059664;28;20475;-47
2021/12/05 14:49:37;;;;;;;5.00;1.20;;;7.00;99.10;;;;;;5072009;28;20480;-47
2021/12/05 14:52:08;;;;;;;6.60;1.20;;;7.00;98.80;;;;;;5059975;28;20544;-47
2021/12/05 14:54:38;;;;;;;1.70;1.20;;;6.90;98.20;;;;;;5051939;28;20836;-47
2021/12/05 14:57:08;;;;;;;3.13;1.00;;;6.80;98.00;;;;;;5060397;28;20493;-47
2021/12/05 14:59:36;;;;;;;3.33;1.30;;;6.80;98.20;;;;;;5065397;28;20898;-47
2021/12/05 15:02:04;;;;;;;2.17;1.17;;;6.80;98.20;;;;;;5068583;28;20923;-48
2021/12/05 15:04:33;;;;;;;2.00;1.43;;;6.80;98.10;;;;;;5058609;28;20519;-47
2021/12/05 15:07:00;;;;;;;2.40;1.07;;;6.70;97.90;;;;;;5048912;28;20585;-47
2021/12/05 15:09:30;;;;;;;3.57;1.27;;;6.70;98.40;;;;;;5039850;28;20535;-48
2021/12/05 15:12:03;;;;;;;1.60;1.13;;;6.80;98.50;;;;;;5046657;28;20904;-48
2021/12/05 15:14:31;;;;;;;2.00;1.17;;;6.80;98.50;;;;;;5045013;28;20553;-47
2021/12/05 15:17:02;;;;;;;1.87;1.17;;;6.90;98.50;;;;;;5038673;28;20502;-48
2021/12/05 15:19:29;;;;;;;3.10;1.00;;;6.90;98.60;;;;;;5042462;28;20481;-49
2021/12/05 15:21:56;;;;;;;1.60;1.10;;;6.90;98.60;;;;;;5047361;28;21012;-47
2021/12/05 15:24:27;;;;;;;2.20;1.40;;;6.70;98.50;;;;;;5045998;28;20484;-47
2021/12/05 15:26:56;;;;;;;1.80;1.00;;;6.50;98.60;;;;;;5044528;28;21084;-47
2021/12/05 15:29:25;;;;;;;2.10;1.50;;;6.30;98.80;;;;;;5054541;28;20518;-47
2021/12/05 15:31:53;;;;;;;3.10;1.17;;;6.30;99.20;;;;;;5034476;28;20480;-48
2021/12/05 15:34:26;;;;;;;2.10;1.07;;;6.30;99.30;;;;;;5051356;28;20919;-47
2021/12/05 15:36:54;;;;;;;2.00;1.47;;;6.40;99.50;;;;;;5041054;28;20955;-47
2021/12/05 15:39:24;;;;;;;1.60;0.90;;;6.50;99.50;;;;;;5042883;28;20523;-47
2021/12/05 15:41:54;;;;;;;2.27;0.90;;;6.50;99.20;;;;;;5041346;28;20500;-47
2021/12/05 15:44:28;;;;;;;2.83;1.50;;;6.60;99.20;;;;;;5079355;28;20488;-47
2021/12/05 15:47:16;;;;;;;1.57;1.00;;;6.60;99.10;;;;;;5060256;28;20546;-48
2021/12/05 15:49:50;;;;;;;3.60;1.20;;;6.70;98.90;;;;;;5066813;28;20848;-48
2021/12/05 15:52:20;;;;;;;4.50;1.90;;;6.70;99.20;;;;;;5062537;28;21064;-47
2021/12/05 15:54:47;;;;;;;2.13;1.10;;;6.70;98.80;;;;;;5030908;28;20497;-48
2021/12/05 15:57:21;;;;;;;1.83;1.07;;;6.60;98.60;;;;;;5053355;28;20489;-48
2021/12/05 15:59:50;;;;;;;2.97;1.23;;;6.40;98.90;;;;;;5048716;28;20831;-47
2021/12/05 16:02:18;;;;;;;1.57;1.00;;;6.10;98.70;;;;;;5051491;28;20970;-47
2021/12/05 16:04:46;;;;;;;2.30;1.83;;;5.80;98.90;;;;;;5048342;28;20483;-48
2021/12/05 16:07:14;;;;;;;3.73;1.73;;;5.40;98.90;;;;;;5048784;28;20636;-47
2021/12/05 16:13:11;;;;;;;2.13;1.10;;;5.20;99.40;;;;;;5021078;28;20802;-48
2021/12/05 16:15:39;;;;;;;1.90;0.93;;;5.30;99.40;;;;;;5069195;28;20484;-47
2021/12/05 16:18:07;;;;;;;1.90;1.33;;;5.30;99.60;;;;;;5057390;28;20485;-47
2021/12/05 16:20:41;;;;;;;1.93;1.00;;;5.50;99.40;;;;;;5056626;28;20486;-47
2021/12/05 16:23:16;;;;;;;1.90;1.27;;;5.60;99.20;;;;;;5053618;28;20608;-47
2021/12/05 16:25:48;;;;;;;1.60;0.90;;;5.70;98.80;;;;;;5055095;28;20507;-48
2021/12/05 16:28:15;;;;;;;10.77;8.70;;;5.70;98.70;;;;;;5055233;28;20476;-47
2021/12/05 16:30:47;;;;;;;8.43;5.17;;;5.80;98.70;;;;;;5053280;28;20473;-48
2021/12/05 16:33:18;;;;;;;7.77;5.30;;;5.80;98.50;;;;;;5054279;28;20972;-47
2021/12/05 16:35:49;;;;;;;4.93;4.50;;;5.90;98.60;;;;;;5076085;28;20491;-48
2021/12/05 16:38:25;;;;;;;5.10;3.47;;;5.90;98.70;;;;;;5048918;28;20665;-47
2021/12/05 16:40:56;;;;;;;11.77;4.93;;;5.90;98.50;;;;;;5048412;28;20495;-47
2021/12/05 16:43:24;;;;;;;6.30;4.37;;;5.90;98.40;;;;;;5035363;28;20832;-48
2021/12/05 16:45:56;;;;;;;5.43;4.30;;;5.70;98.20;;;;;;5051874;28;20480;-47
2021/12/05 16:48:23;;;;;;;5.67;4.20;;;5.70;98.50;;;;;;5045891;28;20791;-47
2021/12/05 16:50:50;;;;;;;18.93;11.03;;;5.80;98.40;;;;;;5055804;28;20488;-47
2021/12/05 16:53:30;;;;;;;4.20;3.83;;;5.80;98.50;;;;;;5051267;28;21039;-47
2021/12/05 16:56:00;;;;;;;1.53;0.90;;;5.70;98.10;;;;;;5061088;28;20484;-47
2021/12/05 16:58:27;;;;;;;1.70;1.00;;;5.50;98.00;;;;;;5075888;28;20483;-47
2021/12/05 17:00:55;;;;;;;2.87;1.10;;;5.40;98.50;;;;;;5052170;28;20845;-48
2021/12/05 17:03:24;;;;;;;1.73;1.03;;;5.20;98.40;;;;;;5035408;28;20486;-47
2021/12/05 17:05:54;;;;;;;2.00;1.10;;;5.00;98.50;;;;;;5032373;28;20878;-47
2021/12/05 17:08:24;;;;;;;2.03;1.00;;;4.90;98.80;;;;;;5044063;28;21025;-47
2021/12/05 17:10:54;;;;;;;2.23;1.10;;;4.80;98.80;;;;;;5044584;28;20480;-48
2021/12/05 17:13:24;;;;;;;1.90;1.40;;;4.90;99.10;;;;;;5042434;28;20476;-47
2021/12/05 17:15:58;;;;;;;2.50;1.00;;;4.90;99.00;;;;;;5041381;28;20614;-47
2021/12/05 17:18:29;;;;;;;2.67;0.90;;;5.00;98.90;;;;;;5032850;28;20478;-48
2021/12/05 17:20:58;;;;;;;2.57;1.70;;;5.00;98.70;;;;;;5034393;28;20482;-47